Terminal Aerodrome Forecast
Issued by NWS Wakefield, VA

Home | Current Version | Previous Version | Text Only | Print | Product List | Glossary On
Versions: 1 2 3 4 5 6 7 8 9 10 11 12 13 14 15 16
000
FTUS41 KAKQ 270700 AAA
TAFORF
TAF AMD
KORF 270718Z 2707/2806 05006KT P6SM BKN013 BKN020
      TEMPO 2707/2711 SCT013 SCT020
     FM271300 04010KT P6SM SCT030=

USA.gov is the U.S. government's official web portal to all federal, state and local government web resources and services.